Check out our new PWSWeather beta!
PWSweather.com
Personal Weather Stations
Station Observations
BEZINA
Slovenske KonjiceSI

Slovenske KonjiceSI

Lat: 46.358, Lon: 15.433

Elevation: 340

Station Type: Oregon WMR 200

http://www.slometeo.net/bezina/

High Low Average
Temperature 74.6°F23.7°C 57.2°F14.0°C 64.6°F18.1°C
Dew Point 61.8°F16.6°C 51.8°F11.0°C 57.1°F13.9°C
Winds 5.7 mph 9.2 kmh Calm Calm 1.0 mph SE1.6 kmh SE
Wind Gusts 14.0 mph22.5 kmh -- 4.0 mph6.4 kmh
Humidity 91% 58% 78%
Pressure 29.97 in1014.9 mb 29.71 in1006.1 mb -
Precipitation 0.00 in0.0 mm - -
Hour Temp Dew Point Humidity Winds Wind Gusts Pressure Precip Precip Rate Daily Precip Total
12:00 AM 59.1°F15.1°C 56.2°F13.4°C 90% Calm Calm -- 29.95 in1014.2 mb 0.00 in0.0 mm 0.00 in0.0 mm 0.00 in0.0 mm
12:15 AM 58.9°F14.9°C 56.0°F13.3°C 90% Calm Calm -- 29.95 in1014.2 mb 0.00 in0.0 mm 0.00 in0.0 mm 0.00 in0.0 mm
12:30 AM 58.7°F14.8°C 55.8°F13.2°C 90% Calm Calm -- 29.95 in1014.2 mb 0.00 in0.0 mm 0.00 in0.0 mm 0.00 in0.0 mm
12:45 AM 58.6°F14.8°C 55.7°F13.2°C 90% Calm Calm 2.0 mph3.2 kmh 29.95 in1014.2 mb 0.00 in0.0 mm 0.00 in0.0 mm 0.00 in0.0 mm
01:00 AM 58.4°F14.7°C 55.5°F13.1°C 90% Calm Calm -- 29.95 in1014.2 mb 0.00 in0.0 mm 0.00 in0.0 mm 0.00 in0.0 mm
01:15 AM 58.4°F14.7°C 55.8°F13.2°C 91% Calm Calm 2.0 mph3.2 kmh 29.95 in1014.2 mb 0.00 in0.0 mm 0.00 in0.0 mm 0.00 in0.0 mm
01:30 AM 58.5°F14.7°C 55.9°F13.3°C 91% Calm Calm 2.0 mph3.2 kmh 29.95 in1014.2 mb 0.00 in0.0 mm 0.00 in0.0 mm 0.00 in0.0 mm
01:45 AM 58.6°F14.8°C 56.0°F13.3°C 91% Calm Calm 2.0 mph3.2 kmh 29.96 in1014.6 mb 0.00 in0.0 mm 0.00 in0.0 mm 0.00 in0.0 mm
02:00 AM 58.8°F14.9°C 55.9°F13.3°C 90% 0.8 mph S1.3 kmh S 3.0 mph4.8 kmh 29.96 in1014.6 mb 0.00 in0.0 mm 0.00 in0.0 mm 0.00 in0.0 mm
02:15 AM 59.1°F15.1°C 56.2°F13.4°C 90% Calm Calm -- 29.96 in1014.6 mb 0.00 in0.0 mm 0.00 in0.0 mm 0.00 in0.0 mm
02:30 AM 59.1°F15.1°C 55.9°F13.3°C 89% Calm Calm -- 29.96 in1014.6 mb 0.00 in0.0 mm 0.00 in0.0 mm 0.00 in0.0 mm
02:45 AM 59.1°F15.1°C 55.9°F13.3°C 89% Calm Calm 2.0 mph3.2 kmh 29.96 in1014.6 mb 0.00 in0.0 mm 0.00 in0.0 mm 0.00 in0.0 mm
03:00 AM 59.1°F15.1°C 55.9°F13.3°C 89% Calm Calm -- 29.96 in1014.6 mb 0.00 in0.0 mm 0.00 in0.0 mm 0.00 in0.0 mm
03:15 AM 58.9°F14.9°C 55.0°F12.8°C 87% 0.7 mph S1.1 kmh S 3.0 mph4.8 kmh 29.96 in1014.6 mb 0.00 in0.0 mm 0.00 in0.0 mm 0.00 in0.0 mm
03:30 AM 58.7°F14.8°C 55.2°F12.9°C 88% 0.9 mph S1.4 kmh S 2.0 mph3.2 kmh 29.97 in1014.9 mb 0.00 in0.0 mm 0.00 in0.0 mm 0.00 in0.0 mm
03:45 AM 58.7°F14.8°C 55.2°F12.9°C 88% Calm Calm -- 29.97 in1014.9 mb 0.00 in0.0 mm 0.00 in0.0 mm 0.00 in0.0 mm
04:00 AM 58.7°F14.8°C 54.8°F12.7°C 87% Calm Calm -- 29.97 in1014.9 mb 0.00 in0.0 mm 0.00 in0.0 mm 0.00 in0.0 mm
04:15 AM 58.6°F14.8°C 54.7°F12.6°C 87% Calm Calm -- 29.97 in1014.9 mb 0.00 in0.0 mm 0.00 in0.0 mm 0.00 in0.0 mm
04:30 AM 58.6°F14.8°C 54.7°F12.6°C 87% Calm Calm -- 29.97 in1014.9 mb 0.00 in0.0 mm 0.00 in0.0 mm 0.00 in0.0 mm
04:45 AM 58.3°F14.6°C 54.4°F12.4°C 87% Calm Calm -- 29.97 in1014.9 mb 0.00 in0.0 mm 0.00 in0.0 mm 0.00 in0.0 mm
05:00 AM 58.2°F14.6°C 54.7°F12.6°C 88% Calm Calm -- 29.97 in1014.9 mb 0.00 in0.0 mm 0.00 in0.0 mm 0.00 in0.0 mm
05:15 AM 58.0°F14.4°C 54.2°F12.3°C 87% Calm Calm -- 29.96 in1014.6 mb 0.00 in0.0 mm 0.00 in0.0 mm 0.00 in0.0 mm
05:30 AM 57.9°F14.4°C 54.4°F12.4°C 88% Calm Calm -- 29.96 in1014.6 mb 0.00 in0.0 mm 0.00 in0.0 mm 0.00 in0.0 mm
05:45 AM 57.7°F14.3°C 54.2°F12.3°C 88% Calm Calm -- 29.96 in1014.6 mb 0.00 in0.0 mm 0.00 in0.0 mm 0.00 in0.0 mm
06:00 AM 57.5°F14.2°C 53.7°F12.1°C 87% Calm Calm -- 29.96 in1014.6 mb 0.00 in0.0 mm 0.00 in0.0 mm 0.00 in0.0 mm
06:15 AM 57.6°F14.2°C 54.1°F12.3°C 88% Calm Calm -- 29.96 in1014.6 mb 0.00 in0.0 mm 0.00 in0.0 mm 0.00 in0.0 mm
06:30 AM 57.2°F14.0°C 53.0°F11.7°C 86% Calm Calm -- 29.96 in1014.6 mb 0.00 in0.0 mm 0.00 in0.0 mm 0.00 in0.0 mm
06:45 AM 57.3°F14.1°C 53.8°F12.1°C 88% Calm Calm -- 29.96 in1014.6 mb 0.00 in0.0 mm 0.00 in0.0 mm 0.00 in0.0 mm
07:00 AM 57.3°F14.1°C 53.5°F11.9°C 87% Calm Calm -- 29.95 in1014.2 mb 0.00 in0.0 mm 0.00 in0.0 mm 0.00 in0.0 mm
07:15 AM 57.4°F14.1°C 53.6°F12.0°C 87% Calm Calm -- 29.95 in1014.2 mb 0.00 in0.0 mm 0.00 in0.0 mm 0.00 in0.0 mm
07:30 AM 57.6°F14.2°C 53.4°F11.9°C 86% Calm Calm -- 29.95 in1014.2 mb 0.00 in0.0 mm 0.00 in0.0 mm 0.00 in0.0 mm
07:45 AM 58.1°F14.5°C 53.9°F12.2°C 86% Calm Calm -- 29.95 in1014.2 mb 0.00 in0.0 mm 0.00 in0.0 mm 0.00 in0.0 mm
08:00 AM 58.6°F14.8°C 54.1°F12.3°C 85% Calm Calm -- 29.95 in1014.2 mb 0.00 in0.0 mm 0.00 in0.0 mm 0.00 in0.0 mm
08:15 AM 59.3°F15.2°C 53.8°F12.1°C 82% Calm Calm -- 29.95 in1014.2 mb 0.00 in0.0 mm 0.00 in0.0 mm 0.00 in0.0 mm
08:30 AM 60.3°F15.7°C 54.8°F12.7°C 82% Calm Calm -- 29.95 in1014.2 mb 0.00 in0.0 mm 0.00 in0.0 mm 0.00 in0.0 mm
08:45 AM 60.9°F16.1°C 54.3°F12.4°C 79% Calm Calm -- 29.95 in1014.2 mb 0.00 in0.0 mm 0.00 in0.0 mm 0.00 in0.0 mm
09:00 AM 61.9°F16.6°C 53.9°F12.2°C 75% Calm Calm -- 29.94 in1013.9 mb 0.00 in0.0 mm 0.00 in0.0 mm 0.00 in0.0 mm
09:15 AM 63.0°F17.2°C 54.6°F12.6°C 74% Calm Calm -- 29.94 in1013.9 mb 0.00 in0.0 mm 0.00 in0.0 mm 0.00 in0.0 mm
09:30 AM 64.0°F17.8°C 53.6°F12.0°C 69% Calm Calm -- 29.93 in1013.5 mb 0.00 in0.0 mm 0.00 in0.0 mm 0.00 in0.0 mm
09:45 AM 64.7°F18.2°C 51.8°F11.0°C 63% Calm Calm -- 29.94 in1013.9 mb 0.00 in0.0 mm 0.00 in0.0 mm 0.00 in0.0 mm
10:00 AM 65.5°F18.6°C 53.8°F12.1°C 66% Calm Calm -- 29.93 in1013.5 mb 0.00 in0.0 mm 0.00 in0.0 mm 0.00 in0.0 mm
10:15 AM 66.3°F19.1°C 52.9°F11.6°C 62% Calm Calm -- 29.93 in1013.5 mb 0.00 in0.0 mm 0.00 in0.0 mm 0.00 in0.0 mm
10:30 AM 66.9°F19.4°C 53.0°F11.7°C 61% Calm Calm -- 29.93 in1013.5 mb 0.00 in0.0 mm 0.00 in0.0 mm 0.00 in0.0 mm
10:45 AM 68.0°F20.0°C 54.5°F12.5°C 62% Calm Calm -- 29.92 in1013.2 mb 0.00 in0.0 mm 0.00 in0.0 mm 0.00 in0.0 mm
11:00 AM 69.0°F20.6°C 54.1°F12.3°C 59% 1.1 mph WSW1.8 kmh WSW 5.0 mph8.0 kmh 29.91 in1012.9 mb 0.00 in0.0 mm 0.00 in0.0 mm 0.00 in0.0 mm
11:15 AM 69.5°F20.8°C 55.9°F13.3°C 62% 2.0 mph SW3.2 kmh SW 6.0 mph9.7 kmh 29.91 in1012.9 mb 0.00 in0.0 mm 0.00 in0.0 mm 0.00 in0.0 mm
11:30 AM 69.8°F21.0°C 55.7°F13.2°C 61% 2.4 mph WSW3.9 kmh WSW 9.0 mph14.5 kmh 29.90 in1012.5 mb 0.00 in0.0 mm 0.00 in0.0 mm 0.00 in0.0 mm
11:45 AM 70.6°F21.4°C 55.1°F12.8°C 58% 3.0 mph WSW4.8 kmh WSW 7.0 mph11.3 kmh 29.89 in1012.2 mb 0.00 in0.0 mm 0.00 in0.0 mm 0.00 in0.0 mm
12:00 PM 71.3°F21.8°C 57.6°F14.2°C 62% 2.1 mph SW3.4 kmh SW 7.0 mph11.3 kmh 29.89 in1012.2 mb 0.00 in0.0 mm 0.00 in0.0 mm 0.00 in0.0 mm
12:15 PM 71.6°F22.0°C 57.4°F14.1°C 61% 5.2 mph S8.4 kmh S 12.0 mph19.3 kmh 29.88 in1011.9 mb 0.00 in0.0 mm 0.00 in0.0 mm 0.00 in0.0 mm
12:30 PM 71.7°F22.1°C 57.5°F14.2°C 61% 3.7 mph SW6.0 kmh SW 10.0 mph16.1 kmh 29.87 in1011.5 mb 0.00 in0.0 mm 0.00 in0.0 mm 0.00 in0.0 mm
12:45 PM 71.7°F22.1°C 57.5°F14.2°C 61% 5.7 mph SSW9.2 kmh SSW 11.0 mph17.7 kmh 29.86 in1011.2 mb 0.00 in0.0 mm 0.00 in0.0 mm 0.00 in0.0 mm
01:00 PM 71.8°F22.1°C 58.1°F14.5°C 62% 5.2 mph SSW8.4 kmh SSW 14.0 mph22.5 kmh 29.85 in1010.8 mb 0.00 in0.0 mm 0.00 in0.0 mm 0.00 in0.0 mm
01:15 PM 72.6°F22.6°C 58.4°F14.7°C 61% 5.0 mph S8.0 kmh S 11.0 mph17.7 kmh 29.84 in1010.5 mb 0.00 in0.0 mm 0.00 in0.0 mm 0.00 in0.0 mm
01:30 PM 73.1°F22.8°C 58.8°F14.9°C 61% 4.1 mph SW6.6 kmh SW 7.0 mph11.3 kmh 29.84 in1010.5 mb 0.00 in0.0 mm 0.00 in0.0 mm 0.00 in0.0 mm
01:45 PM 73.5°F23.1°C 59.7°F15.4°C 62% 3.6 mph SW5.8 kmh SW 7.0 mph11.3 kmh 29.84 in1010.5 mb 0.00 in0.0 mm 0.00 in0.0 mm 0.00 in0.0 mm
02:00 PM 74.6°F23.7°C 59.8°F15.4°C 60% 2.8 mph SSW4.5 kmh SSW 8.0 mph12.9 kmh 29.83 in1010.2 mb 0.00 in0.0 mm 0.00 in0.0 mm 0.00 in0.0 mm
02:15 PM 73.6°F23.1°C 59.8°F15.4°C 62% 5.2 mph S8.4 kmh S 14.0 mph22.5 kmh 29.82 in1009.8 mb 0.00 in0.0 mm 0.00 in0.0 mm 0.00 in0.0 mm
02:30 PM 73.9°F23.3°C 60.1°F15.6°C 62% 4.9 mph SSW7.9 kmh SSW 9.0 mph14.5 kmh 29.82 in1009.8 mb 0.00 in0.0 mm 0.00 in0.0 mm 0.00 in0.0 mm
02:45 PM 73.9°F23.3°C 60.1°F15.6°C 62% 3.3 mph SSW5.3 kmh SSW 6.0 mph9.7 kmh 29.82 in1009.8 mb 0.00 in0.0 mm 0.00 in0.0 mm 0.00 in0.0 mm
03:00 PM 73.8°F23.2°C 60.0°F15.6°C 62% 4.1 mph SSW6.6 kmh SSW 8.0 mph12.9 kmh 29.81 in1009.5 mb 0.00 in0.0 mm 0.00 in0.0 mm 0.00 in0.0 mm
03:15 PM 73.2°F22.9°C 60.7°F15.9°C 65% 4.0 mph S6.4 kmh S 8.0 mph12.9 kmh 29.80 in1009.1 mb 0.00 in0.0 mm 0.00 in0.0 mm 0.00 in0.0 mm
03:30 PM 74.4°F23.6°C 61.0°F16.1°C 63% 2.4 mph S3.9 kmh S 5.0 mph8.0 kmh 29.80 in1009.1 mb 0.00 in0.0 mm 0.00 in0.0 mm 0.00 in0.0 mm
03:45 PM 73.5°F23.1°C 61.4°F16.3°C 66% 3.0 mph S4.8 kmh S 6.0 mph9.7 kmh 29.79 in1008.8 mb 0.00 in0.0 mm 0.00 in0.0 mm 0.00 in0.0 mm
04:00 PM 72.8°F22.7°C 61.6°F16.4°C 68% 3.0 mph S4.8 kmh S 6.0 mph9.7 kmh 29.79 in1008.8 mb 0.00 in0.0 mm 0.00 in0.0 mm 0.00 in0.0 mm
04:15 PM 72.1°F22.3°C 61.8°F16.6°C 70% 2.0 mph S3.2 kmh S 4.0 mph6.4 kmh 29.78 in1008.5 mb 0.00 in0.0 mm 0.00 in0.0 mm 0.00 in0.0 mm
04:30 PM 71.2°F21.8°C 60.9°F16.1°C 70% 2.2 mph SW3.5 kmh SW 7.0 mph11.3 kmh 29.78 in1008.5 mb 0.00 in0.0 mm 0.00 in0.0 mm 0.00 in0.0 mm
04:45 PM 70.9°F21.6°C 60.6°F15.9°C 70% 3.2 mph SW5.1 kmh SW 9.0 mph14.5 kmh 29.78 in1008.5 mb 0.00 in0.0 mm 0.00 in0.0 mm 0.00 in0.0 mm
05:00 PM 70.4°F21.3°C 60.5°F15.8°C 71% 3.5 mph SW5.6 kmh SW 9.0 mph14.5 kmh 29.78 in1008.5 mb 0.00 in0.0 mm 0.00 in0.0 mm 0.00 in0.0 mm
05:15 PM 69.9°F21.1°C 60.5°F15.8°C 72% 3.8 mph SW6.1 kmh SW 12.0 mph19.3 kmh 29.77 in1008.1 mb 0.00 in0.0 mm 0.00 in0.0 mm 0.00 in0.0 mm
05:30 PM 69.4°F20.8°C 60.4°F15.8°C 73% 3.7 mph SW6.0 kmh SW 8.0 mph12.9 kmh 29.77 in1008.1 mb 0.00 in0.0 mm 0.00 in0.0 mm 0.00 in0.0 mm
05:45 PM 68.8°F20.4°C 60.6°F15.9°C 75% 2.1 mph SW3.4 kmh SW 3.0 mph4.8 kmh 29.77 in1008.1 mb 0.00 in0.0 mm 0.00 in0.0 mm 0.00 in0.0 mm
06:00 PM 67.8°F19.9°C 60.3°F15.7°C 77% 1.0 mph SSW1.6 kmh SSW 6.0 mph9.7 kmh 29.77 in1008.1 mb 0.00 in0.0 mm 0.00 in0.0 mm 0.00 in0.0 mm
06:15 PM 67.2°F19.6°C 60.1°F15.6°C 78% 2.0 mph SW3.2 kmh SW 6.0 mph9.7 kmh 29.77 in1008.1 mb 0.00 in0.0 mm 0.00 in0.0 mm 0.00 in0.0 mm
06:30 PM 66.5°F19.2°C 59.8°F15.4°C 79% 1.3 mph SW2.1 kmh SW 4.0 mph6.4 kmh 29.77 in1008.1 mb 0.00 in0.0 mm 0.00 in0.0 mm 0.00 in0.0 mm
06:45 PM 65.9°F18.8°C 59.9°F15.5°C 81% 0.8 mph W1.3 kmh W 5.0 mph8.0 kmh 29.76 in1007.8 mb 0.00 in0.0 mm 0.00 in0.0 mm 0.00 in0.0 mm
07:00 PM 64.8°F18.2°C 59.2°F15.1°C 82% Calm Calm 3.0 mph4.8 kmh 29.76 in1007.8 mb 0.00 in0.0 mm 0.00 in0.0 mm 0.00 in0.0 mm
07:15 PM 63.9°F17.7°C 59.0°F15.0°C 84% 1.0 mph E1.6 kmh E 3.0 mph4.8 kmh 29.76 in1007.8 mb 0.00 in0.0 mm 0.00 in0.0 mm 0.00 in0.0 mm
07:30 PM 63.2°F17.3°C 58.9°F14.9°C 86% 0.8 mph WNW1.3 kmh WNW 3.0 mph4.8 kmh 29.76 in1007.8 mb 0.00 in0.0 mm 0.00 in0.0 mm 0.00 in0.0 mm
07:45 PM 62.5°F16.9°C 58.6°F14.8°C 87% 0.2 mph NW0.3 kmh NW 3.0 mph4.8 kmh 29.76 in1007.8 mb 0.00 in0.0 mm 0.00 in0.0 mm 0.00 in0.0 mm
08:00 PM 62.7°F17.1°C 59.1°F15.1°C 88% 1.0 mph NW1.6 kmh NW 4.0 mph6.4 kmh 29.75 in1007.5 mb 0.00 in0.0 mm 0.00 in0.0 mm 0.00 in0.0 mm
08:15 PM 62.7°F17.1°C 59.1°F15.1°C 88% 1.0 mph N1.6 kmh N 3.0 mph4.8 kmh 29.75 in1007.5 mb 0.00 in0.0 mm 0.00 in0.0 mm 0.00 in0.0 mm
08:30 PM 62.7°F17.1°C 59.1°F15.1°C 88% 1.0 mph N1.6 kmh N 4.0 mph6.4 kmh 29.75 in1007.5 mb 0.00 in0.0 mm 0.00 in0.0 mm 0.00 in0.0 mm
08:45 PM 62.8°F17.1°C 59.2°F15.1°C 88% 1.1 mph N1.8 kmh N 6.0 mph9.7 kmh 29.75 in1007.5 mb 0.00 in0.0 mm 0.00 in0.0 mm 0.00 in0.0 mm
09:00 PM 62.8°F17.1°C 59.2°F15.1°C 88% 0.5 mph N0.8 kmh N 8.0 mph12.9 kmh 29.74 in1007.1 mb 0.00 in0.0 mm 0.00 in0.0 mm 0.00 in0.0 mm
09:15 PM 63.0°F17.2°C 59.4°F15.2°C 88% 1.0 mph W1.6 kmh W 6.0 mph9.7 kmh 29.74 in1007.1 mb 0.00 in0.0 mm 0.00 in0.0 mm 0.00 in0.0 mm
09:30 PM 63.4°F17.4°C 59.5°F15.3°C 87% 1.0 mph NW1.6 kmh NW 9.0 mph14.5 kmh 29.73 in1006.8 mb 0.00 in0.0 mm 0.00 in0.0 mm 0.00 in0.0 mm
09:45 PM 63.8°F17.7°C 59.5°F15.3°C 86% 2.0 mph NW3.2 kmh NW 9.0 mph14.5 kmh 29.73 in1006.8 mb 0.00 in0.0 mm 0.00 in0.0 mm 0.00 in0.0 mm
10:00 PM 64.1°F17.8°C 59.5°F15.3°C 85% 2.3 mph N3.7 kmh N 6.0 mph9.7 kmh 29.73 in1006.8 mb 0.00 in0.0 mm 0.00 in0.0 mm 0.00 in0.0 mm
10:15 PM 64.1°F17.8°C 59.5°F15.3°C 85% 2.4 mph N3.9 kmh N 5.0 mph8.0 kmh 29.73 in1006.8 mb 0.00 in0.0 mm 0.00 in0.0 mm 0.00 in0.0 mm
10:30 PM 63.6°F17.6°C 59.0°F15.0°C 85% 0.3 mph NW0.5 kmh NW 3.0 mph4.8 kmh 29.72 in1006.4 mb 0.00 in0.0 mm 0.00 in0.0 mm 0.00 in0.0 mm
10:45 PM 63.1°F17.3°C 58.8°F14.9°C 86% Calm Calm 6.0 mph9.7 kmh 29.72 in1006.4 mb 0.00 in0.0 mm 0.00 in0.0 mm 0.00 in0.0 mm
11:15 PM 63.3°F17.4°C 58.7°F14.8°C 85% 1.0 mph SW1.6 kmh SW 5.0 mph8.0 kmh 29.72 in1006.4 mb 0.00 in0.0 mm 0.00 in0.0 mm 0.00 in0.0 mm
11:30 PM 63.2°F17.3°C 57.9°F14.4°C 83% 2.3 mph SW3.7 kmh SW 10.0 mph16.1 kmh 29.72 in1006.4 mb 0.00 in0.0 mm 0.00 in0.0 mm 0.00 in0.0 mm
11:45 PM 63.9°F17.7°C 58.0°F14.4°C 81% 4.0 mph SW6.4 kmh SW 9.0 mph14.5 kmh 29.71 in1006.1 mb 0.00 in0.0 mm 0.00 in0.0 mm 0.00 in0.0 mm